Time;durP1;ratioP1;P1;durP2;ratioP2;P2;SDS_P1;SDS_P2;PMS_P1;PMS_P2;Temp;Humidity;BMP_temperature;BMP_pressure;BME280_temperature;BME280_humidity;BME280_pressure;Samples;Min_cycle;Max_cycle;Signal;HPM_P1;HPM_P2
2022/04/10 00:01:31;;;;;;;10.60;5.13;;;;;;;18.89;31.80;93952.41;5055423;28;20824;-60
2022/04/10 00:03:58;;;;;;;14.17;5.77;;;;;;;18.98;31.28;93955.75;5054848;28;20959;-62
2022/04/10 00:06:26;;;;;;;10.07;5.73;;;;;;;18.75;31.45;93941.34;5055234;28;20451;-59
2022/04/10 00:08:53;;;;;;;19.07;5.83;;;;;;;18.74;31.32;93954.94;5055467;28;20443;-60
2022/04/10 00:11:20;;;;;;;9.97;5.40;;;;;;;18.68;32.02;93946.41;5055176;28;20450;-62
2022/04/10 00:13:47;;;;;;;22.87;6.27;;;;;;;18.55;31.84;93947.47;5054732;28;20504;-62
2022/04/10 00:16:14;;;;;;;9.30;5.53;;;;;;;18.60;31.64;93943.81;5054284;28;20469;-60
2022/04/10 00:18:41;;;;;;;13.70;5.70;;;;;;;18.49;32.03;93932.06;5052243;28;20486;-59
2022/04/10 00:21:08;;;;;;;15.37;5.27;;;;;;;18.55;31.83;93944.03;5051685;28;20467;-60
2022/04/10 00:23:35;;;;;;;12.43;5.27;;;;;;;18.56;31.32;93934.97;5052520;28;20442;-62
2022/04/10 00:26:03;;;;;;;10.33;5.87;;;;;;;18.63;32.01;93930.66;5051295;28;20493;-61
2022/04/10 00:28:30;;;;;;;12.43;5.47;;;;;;;18.58;32.09;93930.88;5052132;28;20501;-61
2022/04/10 00:30:57;;;;;;;11.40;5.40;;;;;;;18.61;31.99;93929.47;5050314;28;20443;-61
2022/04/10 00:33:25;;;;;;;14.13;5.63;;;;;;;18.44;31.56;93930.41;5050288;28;20455;-62
2022/04/10 00:35:53;;;;;;;13.40;5.30;;;;;;;18.10;31.76;93936.75;5049736;28;20468;-60
2022/04/10 00:38:20;;;;;;;11.60;5.00;;;;;;;18.49;31.43;93932.84;5050374;28;20574;-61
2022/04/10 00:40:48;;;;;;;12.50;5.80;;;;;;;18.25;31.98;93921.38;5049452;28;20534;-61
2022/04/10 00:43:15;;;;;;;11.93;5.90;;;;;;;18.40;31.48;93926.81;5051539;28;20442;-59
2022/04/10 00:45:43;;;;;;;12.90;5.77;;;;;;;18.31;32.15;93926.13;5050808;28;20435;-61
2022/04/10 00:48:10;;;;;;;15.67;6.00;;;;;;;18.45;32.08;93929.31;5052015;28;20438;-62
2022/04/10 00:51:39;;;;;;;14.00;5.90;;;;;;;18.23;32.65;93905.75;5051024;28;20495;-63
2022/04/10 00:53:25;;;;;;;15.80;5.60;;;;;;;18.36;32.38;93922.50;5050110;28;20435;-61
2022/04/10 00:55:52;;;;;;;12.30;5.93;;;;;;;18.46;32.75;93928.22;5049272;28;20834;-62
2022/04/10 00:58:19;;;;;;;13.67;6.23;;;;;;;18.16;32.40;93932.03;5049945;28;20548;-61
2022/04/10 01:00:46;;;;;;;15.90;6.03;;;;;;;18.51;32.08;93919.25;5049107;28;20443;-61
2022/04/10 01:03:13;;;;;;;14.23;6.40;;;;;;;18.41;32.23;93909.03;5052071;28;20520;-61
2022/04/10 01:05:44;;;;;;;16.27;6.53;;;;;;;18.45;32.45;93913.38;5050857;28;20449;-62
2022/04/10 01:08:12;;;;;;;14.63;6.27;;;;;;;18.23;32.90;93913.72;5051463;28;20419;-62
2022/04/10 01:10:39;;;;;;;12.87;6.27;;;;;;;18.13;33.23;93911.50;5049334;28;20442;-61
2022/04/10 01:13:07;;;;;;;16.60;7.60;;;;;;;18.00;33.12;93908.00;5049484;28;20455;-60
2022/04/10 01:15:35;;;;;;;19.40;7.90;;;;;;;18.13;33.23;93884.97;5049086;28;20505;-61
2022/04/10 01:18:03;;;;;;;17.57;7.97;;;;;;;18.05;34.09;93875.22;5049476;28;20479;-60
2022/04/10 01:20:32;;;;;;;33.60;16.63;;;;;;;17.72;33.90;93882.34;5050244;28;20453;-61
2022/04/10 01:23:04;;;;;;;31.17;15.03;;;;;;;17.63;34.01;93884.28;5049252;28;20458;-62
2022/04/10 01:25:31;;;;;;;25.63;14.70;;;;;;;17.79;33.56;93882.63;5048679;28;20455;-60
2022/04/10 01:28:01;;;;;;;24.93;14.90;;;;;;;17.40;33.34;93872.44;5049175;28;20447;-61
2022/04/10 01:30:29;;;;;;;27.30;14.97;;;;;;;16.81;35.18;93890.19;5047695;28;20574;-59
2022/04/10 01:32:57;;;;;;;26.00;13.37;;;;;;;16.67;34.82;93895.69;5049353;28;20438;-60
2022/04/10 01:35:27;;;;;;;29.57;14.47;;;;;;;16.98;35.04;93890.13;5048484;28;20458;-60
2022/04/10 01:37:56;;;;;;;33.57;14.60;;;;;;;16.87;34.73;93897.66;5050441;28;20921;-61
2022/04/10 01:40:27;;;;;;;27.67;13.23;;;;;;;17.02;34.95;93886.50;5048458;28;20546;-60
2022/04/10 01:42:54;;;;;;;23.90;14.07;;;;;;;16.93;35.26;93877.84;5050060;28;20542;-61
2022/04/10 01:45:21;;;;;;;22.93;13.70;;;;;;;17.08;34.46;93885.22;5049857;28;20449;-62
2022/04/10 01:47:52;;;;;;;26.03;13.03;;;;;;;17.04;35.32;93894.16;5049265;28;20553;-61
2022/04/10 01:50:22;;;;;;;24.83;12.43;;;;;;;17.31;34.42;93901.63;5049881;28;20504;-62
2022/04/10 01:52:51;;;;;;;22.30;12.67;;;;;;;17.23;34.82;93919.09;5048860;28;20569;-61
2022/04/10 01:55:20;;;;;;;22.17;12.07;;;;;;;17.25;34.41;93916.13;5048091;28;20435;-61
2022/04/10 01:57:49;;;;;;;23.17;13.13;;;;;;;17.33;34.77;93906.59;5048936;28;20996;-61
2022/04/10 02:00:17;;;;;;;25.47;13.57;;;;;;;17.19;34.52;93902.31;5049771;28;20439;-60
2022/04/10 02:02:45;;;;;;;26.30;12.50;;;;;;;16.95;35.18;93907.41;5048890;28;20984;-60
2022/04/10 02:05:12;;;;;;;26.27;12.80;;;;;;;16.53;36.05;93900.41;5048202;28;20443;-61
2022/04/10 02:07:39;;;;;;;24.50;12.03;;;;;;;16.54;35.70;93907.25;5048245;28;20973;-61
2022/04/10 02:10:07;;;;;;;24.00;12.47;;;;;;;16.83;35.54;93909.94;5048053;28;20915;-60
2022/04/10 02:12:35;;;;;;;22.87;11.37;;;;;;;16.96;34.92;93894.94;5049974;28;20419;-59
2022/04/10 02:15:03;;;;;;;20.33;11.47;;;;;;;16.99;35.72;93889.78;5047910;28;20512;-60
2022/04/10 02:17:30;;;;;;;24.50;13.37;;;;;;;16.95;36.21;93891.53;5049550;28;20561;-60
2022/04/10 02:19:56;;;;;;;25.53;12.67;;;;;;;16.82;35.87;93897.81;5049864;28;20486;-61
2022/04/10 02:22:23;;;;;;;24.03;11.60;;;;;;;16.60;36.61;93900.72;5049699;28;20439;-60
2022/04/10 02:24:55;;;;;;;24.50;11.90;;;;;;;15.72;38.00;93906.72;5049465;28;20457;-61
2022/04/10 02:27:24;;;;;;;25.30;12.10;;;;;;;16.27;36.33;93899.66;5048110;28;20462;-64
2022/04/10 02:29:51;;;;;;;25.80;12.20;;;;;;;16.59;36.91;93908.94;5047878;28;20962;-60
2022/04/10 02:32:19;;;;;;;19.97;10.67;;;;;;;16.50;36.09;93916.91;5048236;28;20451;-60
2022/04/10 02:34:46;;;;;;;19.37;10.30;;;;;;;15.84;37.48;93910.28;5047737;28;20450;-62
2022/04/10 02:37:14;;;;;;;18.60;10.83;;;;;;;16.50;37.05;93906.31;5048037;28;20621;-61
2022/04/10 02:39:41;;;;;;;22.37;11.03;;;;;;;16.30;36.49;93912.25;5047854;28;20479;-59
2022/04/10 02:42:08;;;;;;;19.63;10.90;;;;;;;16.32;36.55;93904.00;5047740;28;20455;-59
2022/04/10 02:44:35;;;;;;;20.47;10.20;;;;;;;16.71;35.87;93912.50;5047326;28;20446;-60
2022/04/10 02:47:02;;;;;;;21.63;11.07;;;;;;;16.61;36.12;93923.41;5048122;28;20447;-61
2022/04/10 02:49:29;;;;;;;19.17;9.90;;;;;;;16.78;35.71;93915.44;5047577;28;20907;-60
2022/04/10 02:51:56;;;;;;;17.80;10.23;;;;;;;16.46;36.65;93910.66;5048114;28;20463;-60
2022/04/10 02:54:23;;;;;;;17.27;9.47;;;;;;;16.47;36.76;93904.31;5048581;28;20445;-60
2022/04/10 02:56:50;;;;;;;28.03;10.27;;;;;;;16.18;37.19;93914.78;5049218;28;20453;-61
2022/04/10 02:59:17;;;;;;;16.13;9.43;;;;;;;15.12;38.18;93920.56;5047713;28;20479;-61
2022/04/10 03:01:44;;;;;;;17.87;9.00;;;;;;;16.01;36.99;93888.34;5047751;28;21165;-61
2022/04/10 03:04:11;;;;;;;16.60;9.50;;;;;;;16.32;35.96;93910.06;5048077;28;20443;-61
2022/04/10 03:06:39;;;;;;;15.23;8.87;;;;;;;16.70;36.08;93900.34;5047211;28;20449;-62
2022/04/10 03:09:07;;;;;;;18.23;9.03;;;;;;;16.43;36.47;93921.88;5047925;28;20479;-61
2022/04/10 03:11:36;;;;;;;14.97;8.90;;;;;;;16.69;35.93;93919.97;5047364;28;20524;-61
2022/04/10 03:14:03;;;;;;;17.40;9.00;;;;;;;16.67;35.67;93926.66;5048053;28;20486;-62
2022/04/10 03:16:30;;;;;;;21.17;9.57;;;;;;;16.86;36.19;93935.75;5047110;28;20485;-62
2022/04/10 03:18:57;;;;;;;20.33;10.00;;;;;;;16.90;35.65;93938.56;5047859;28;20510;-61
2022/04/10 03:21:24;;;;;;;17.87;9.33;;;;;;;16.64;36.26;93938.63;5048777;28;21011;-62
2022/04/10 03:23:51;;;;;;;20.60;9.03;;;;;;;16.61;36.44;93933.97;5047560;28;20453;-60
2022/04/10 03:26:18;;;;;;;20.73;9.40;;;;;;;16.66;36.29;93931.16;5046944;28;20443;-62
2022/04/10 03:28:45;;;;;;;16.70;8.73;;;;;;;16.73;36.17;93942.03;5047846;28;20542;-61
2022/04/10 03:31:12;;;;;;;24.03;9.37;;;;;;;16.48;36.24;93940.22;5047651;28;20451;-61
2022/04/10 03:33:40;;;;;;;18.73;9.23;;;;;;;16.76;36.23;93941.41;5048233;28;20616;-60
2022/04/10 03:36:07;;;;;;;22.63;10.43;;;;;;;16.83;36.80;93941.69;5046954;28;20907;-62
2022/04/10 03:38:34;;;;;;;18.23;10.90;;;;;;;16.53;37.12;93948.00;5064433;28;20471;-61
2022/04/10 03:41:01;;;;;;;24.87;10.73;;;;;;;16.41;36.79;93971.63;5064154;28;20454;-61
2022/04/10 03:43:28;;;;;;;16.63;9.63;;;;;;;16.78;36.69;93956.97;5047747;28;20446;-62
2022/04/10 03:45:55;;;;;;;17.23;8.67;;;;;;;16.60;36.45;93947.53;5048797;28;20522;-61
2022/04/10 03:48:24;;;;;;;14.53;7.53;;;;;;;16.79;36.41;93948.72;5047633;28;20438;-62
2022/04/10 03:50:52;;;;;;;22.57;8.03;;;;;;;16.88;37.35;93944.16;5046853;28;20892;-60
2022/04/10 03:53:20;;;;;;;15.00;8.03;;;;;;;16.79;36.87;93945.28;5049967;28;20423;-62
2022/04/10 03:55:48;;;;;;;13.57;7.40;;;;;;;16.45;37.72;93972.56;5050855;28;20477;-60
2022/04/10 03:58:17;;;;;;;14.53;7.17;;;;;;;16.40;37.38;93970.09;5051123;28;20440;-61
2022/04/10 04:00:44;;;;;;;13.43;7.00;;;;;;;16.54;37.46;93949.56;5050775;28;20438;-60
2022/04/10 04:03:14;;;;;;;12.90;7.00;;;;;;;16.41;37.86;93966.34;5050745;28;20449;-61
2022/04/10 04:05:41;;;;;;;15.23;7.47;;;;;;;16.13;38.26;93975.69;5050352;28;20508;-62
2022/04/10 04:08:11;;;;;;;16.77;7.80;;;;;;;16.11;38.90;93988.47;5052183;28;20925;-61
2022/04/10 04:10:39;;;;;;;15.53;7.30;;;;;;;16.05;38.41;93979.13;5050557;28;20442;-60
2022/04/10 04:13:06;;;;;;;13.37;7.63;;;;;;;16.32;38.74;93978.03;5050850;28;20439;-60
2022/04/10 04:15:34;;;;;;;14.10;7.87;;;;;;;16.22;38.73;93990.47;5050535;28;20469;-61
2022/04/10 04:18:01;;;;;;;14.13;7.60;;;;;;;16.41;39.02;93982.22;5050877;28;20516;-60
2022/04/10 04:20:29;;;;;;;13.97;7.83;;;;;;;16.28;39.40;93993.72;5050313;28;20511;-59
2022/04/10 04:22:58;;;;;;;13.13;8.17;;;;;;;16.12;40.99;93995.28;5051330;28;20530;-60
2022/04/10 04:25:26;;;;;;;10.63;8.93;;;;;;;16.12;41.11;93995.28;5050208;28;20464;-62
2022/04/10 04:27:56;;;;;;;16.53;11.03;;;;;;;15.71;42.72;94010.81;5050439;28;20439;-61
2022/04/10 04:30:23;;;;;;;16.10;12.53;;;;;;;15.44;43.71;94011.06;5050154;28;20441;-62
2022/04/10 04:32:53;;;;;;;15.43;12.87;;;;;;;15.19;44.45;94015.91;5051859;28;20449;-61
2022/04/10 04:35:20;;;;;;;17.37;13.97;;;;;;;15.42;44.58;94029.06;5050300;28;21364;-60
2022/04/10 04:37:47;;;;;;;17.07;15.03;;;;;;;15.58;44.13;94022.25;5050185;28;20474;-60
2022/04/10 04:40:19;;;;;;;19.83;15.63;;;;;;;15.09;45.42;94025.94;5049972;28;20944;-60
2022/04/10 04:42:47;;;;;;;17.40;15.40;;;;;;;15.09;45.48;94031.97;5050371;28;20916;-62
2022/04/10 04:45:18;;;;;;;18.57;16.07;;;;;;;14.61;46.46;94036.38;5049826;28;21019;-59
2022/04/10 04:47:58;;;;;;;21.97;16.53;;;;;;;14.64;46.49;94041.03;5050042;28;20519;-61
2022/04/10 04:50:25;;;;;;;19.63;16.90;;;;;;;14.03;48.01;94056.66;5049997;28;20501;-61
2022/04/10 04:52:54;;;;;;;22.07;17.83;;;;;;;13.62;49.00;94066.47;5050186;28;20930;-60
2022/04/10 04:55:21;;;;;;;22.50;19.00;;;;;;;14.07;48.09;94058.41;5049128;28;20455;-61
2022/04/10 04:57:48;;;;;;;21.27;17.80;;;;;;;14.28;48.15;94053.50;5050012;28;20454;-62
2022/04/10 05:00:16;;;;;;;21.63;18.17;;;;;;;14.48;46.99;94053.03;5049552;28;20552;-62
2022/04/10 05:02:49;;;;;;;22.83;18.90;;;;;;;14.06;48.11;94066.59;5049791;28;20439;-60
2022/04/10 05:05:19;;;;;;;24.10;18.47;;;;;;;13.54;49.24;94064.53;5048886;28;20916;-62
2022/04/10 05:07:46;;;;;;;22.73;17.97;;;;;;;13.64;48.68;94074.84;5049831;28;20997;-61
2022/04/10 05:10:14;;;;;;;22.90;18.27;;;;;;;13.07;50.06;94079.59;5066277;28;20574;-62
2022/04/10 05:12:41;;;;;;;22.23;18.50;;;;;;;13.17;50.18;94074.16;5049797;28;20443;-61
2022/04/10 05:15:13;;;;;;;23.83;18.60;;;;;;;13.84;48.72;94069.97;5049368;28;20431;-61
2022/04/10 05:17:44;;;;;;;24.63;18.50;;;;;;;13.65;48.63;94073.78;5049801;28;20906;-59
2022/04/10 05:20:12;;;;;;;28.37;18.23;;;;;;;13.87;48.36;94068.59;5049201;28;20573;-61
2022/04/10 05:22:45;;;;;;;26.43;19.40;;;;;;;13.69;48.35;94082.66;5049539;28;20434;-63
2022/04/10 05:25:12;;;;;;;24.30;18.13;;;;;;;13.33;49.35;94079.94;5049877;28;20476;-59
2022/04/10 05:27:43;;;;;;;27.73;18.47;;;;;;;13.35;49.25;94082.25;5049546;28;20550;-62
2022/04/10 05:30:11;;;;;;;24.83;18.60;;;;;;;13.66;48.77;94077.97;5049018;28;20451;-66
2022/04/10 05:32:42;;;;;;;27.53;19.17;;;;;;;13.36;49.25;94083.84;5049787;28;20442;-61
2022/04/10 05:35:12;;;;;;;24.43;18.90;;;;;;;13.14;49.53;94082.63;5048758;28;20953;-62
2022/04/10 05:37:40;;;;;;;27.57;18.67;;;;;;;12.86;49.92;94069.69;5049275;28;20493;-63
2022/04/10 05:40:08;;;;;;;23.07;16.10;;;;;;;12.34;51.53;94075.25;5049091;28;20911;-60
2022/04/10 05:42:43;;;;;;;21.53;16.07;;;;;;;12.44;51.20;94085.63;5049046;28;20882;-61
2022/04/10 05:45:12;;;;;;;25.17;18.27;;;;;;;12.26;51.18;94100.34;5048244;28;20453;-60
2022/04/10 05:47:44;;;;;;;23.83;16.33;;;;;;;11.86;52.09;94101.63;5049643;28;20447;-60
2022/04/10 05:50:12;;;;;;;22.90;15.53;;;;;;;11.72;52.48;94102.59;5065298;28;20442;-59
2022/04/10 05:52:44;;;;;;;23.33;16.43;;;;;;;12.26;51.16;94102.19;5048767;28;20440;-61
2022/04/10 05:55:15;;;;;;;22.73;14.67;;;;;;;11.69;52.91;94114.47;5048457;28;20900;-62
2022/04/10 05:57:44;;;;;;;22.70;17.17;;;;;;;11.96;52.05;94108.63;5050328;28;20482;-61
2022/04/10 06:00:16;;;;;;;22.20;15.10;;;;;;;11.81;51.50;94122.72;5048225;28;20558;-60
2022/04/10 06:03:11;;;;;;;21.60;14.90;;;;;;;11.98;51.12;94132.75;5049069;28;20462;-59
2022/04/10 06:05:41;;;;;;;22.77;15.77;;;;;;;12.17;50.78;94131.69;5048153;28;20443;-62
2022/04/10 06:08:18;;;;;;;16.60;11.80;;;;;;;11.84;51.09;94127.38;5065753;28;20450;-62
2022/04/10 06:10:45;;;;;;;23.27;15.10;;;;;;;12.01;51.10;94132.16;5048218;28;20596;-65
2022/04/10 06:13:13;;;;;;;18.87;14.17;;;;;;;12.27;50.25;94140.50;5048521;28;20435;-61
2022/04/10 06:15:59;;;;;;;19.77;14.43;;;;;;;11.87;51.33;94133.94;5064655;28;20447;-62
2022/04/10 06:18:29;;;;;;;19.87;14.67;;;;;;;11.76;51.16;94135.09;5050731;28;20462;-63
2022/04/10 06:20:59;;;;;;;22.33;14.60;;;;;;;11.72;52.20;94150.63;5048595;28;20487;-61
2022/04/10 06:23:27;;;;;;;19.97;13.60;;;;;;;11.82;51.17;94144.50;5048414;28;20439;-60
2022/04/10 06:26:01;;;;;;;19.13;14.37;;;;;;;11.73;51.61;94151.44;5048296;28;20887;-61
2022/04/10 06:28:30;;;;;;;15.83;10.83;;;;;;;11.91;50.94;94148.06;5048266;28;20443;-61
2022/04/10 06:30:59;;;;;;;15.07;11.20;;;;;;;11.88;50.70;94135.47;5047871;28;20467;-60
2022/04/10 06:33:31;;;;;;;19.00;11.53;;;;;;;12.02;50.53;94144.25;5048853;28;20455;-60
2022/04/10 06:35:58;;;;;;;15.80;11.10;;;;;;;11.79;50.71;94139.78;5049335;28;20462;-61
2022/04/10 06:38:25;;;;;;;16.67;11.60;;;;;;;11.65;50.66;94142.31;5050170;28;20446;-60
2022/04/10 06:41:08;;;;;;;14.83;11.20;;;;;;;11.52;51.35;94139.53;5047498;28;20489;-62
2022/04/10 06:43:35;;;;;;;13.37;10.67;;;;;;;12.20;49.44;94140.84;5048108;28;20516;-61
2022/04/10 06:46:04;;;;;;;16.67;10.40;;;;;;;12.17;49.14;94141.44;5049044;28;20508;-61
2022/04/10 06:48:39;;;;;;;12.87;10.20;;;;;;;12.21;49.70;94145.03;5048171;28;20465;-59
2022/04/10 06:51:06;;;;;;;10.87;8.47;;;;;;;11.80;50.33;94146.63;5048136;28;20458;-60
2022/04/10 06:53:33;;;;;;;10.67;8.10;;;;;;;11.65;50.24;94144.94;5048178;28;20470;-61
2022/04/10 06:56:00;;;;;;;8.93;5.97;;;;;;;11.32;51.05;94134.50;5048871;28;20446;-62
2022/04/10 06:58:33;;;;;;;9.47;7.20;;;;;;;11.19;51.36;94152.47;5047722;28;20434;-60
2022/04/10 07:01:01;;;;;;;9.43;7.67;;;;;;;11.45;50.70;94149.59;5047510;28;20501;-61
2022/04/10 07:03:28;;;;;;;10.00;6.60;;;;;;;11.38;50.66;94141.28;5048105;28;20486;-62
2022/04/10 07:05:57;;;;;;;9.33;7.10;;;;;;;11.11;51.28;94137.31;5047141;28;20458;-62
2022/04/10 07:08:30;;;;;;;9.13;6.90;;;;;;;10.75;51.34;94136.06;5047813;28;20817;-60
2022/04/10 07:10:57;;;;;;;10.37;6.97;;;;;;;11.06;50.84;94142.63;5048980;28;20451;-61
2022/04/10 07:13:28;;;;;;;8.07;5.57;;;;;;;11.56;49.52;94146.59;5047929;28;20467;-60
2022/04/10 07:15:55;;;;;;;9.77;6.13;;;;;;;11.02;50.32;94153.94;5047250;28;20836;-61
2022/04/10 07:18:22;;;;;;;9.97;6.47;;;;;;;11.69;49.35;94150.41;5049183;28;20516;-61
2022/04/10 07:20:53;;;;;;;7.70;5.43;;;;;;;12.14;48.56;94168.25;5046985;28;20986;-61
2022/04/10 07:23:42;;;;;;;8.43;5.83;;;;;;;10.95;50.47;94172.59;5049183;28;20438;-61
2022/04/10 07:26:15;;;;;;;7.17;5.40;;;;;;;11.16;50.34;94168.75;5046918;28;20431;-60
2022/04/10 07:28:48;;;;;;;6.67;4.93;;;;;;;10.99;50.69;94157.91;5051767;28;20894;-60
2022/04/10 07:31:17;;;;;;;6.97;5.27;;;;;;;11.53;49.70;94157.63;5051295;28;20457;-62
2022/04/10 07:33:44;;;;;;;6.03;4.53;;;;;;;11.18;49.96;94137.78;5052815;28;20423;-61
2022/04/10 07:36:21;;;;;;;7.17;5.00;;;;;;;11.14;49.40;94149.91;5050613;28;20466;-61
2022/04/10 07:38:51;;;;;;;6.80;4.70;;;;;;;11.70;48.27;94160.63;5051478;28;20561;-60
2022/04/10 07:41:28;;;;;;;6.50;4.07;;;;;;;11.46;48.49;94151.94;5050630;28;20493;-61
2022/04/10 07:43:57;;;;;;;5.40;4.10;;;;;;;11.30;48.99;94154.97;5051335;28;20878;-59
2022/04/10 07:49:13;;;;;;;4.97;3.97;;;;;;;11.51;48.68;94158.97;5051382;28;21000;-61
2022/04/10 07:51:51;;;;;;;4.67;3.67;;;;;;;12.01;47.22;94156.59;5051270;28;20882;-61
2022/04/10 07:54:38;;;;;;;5.20;3.70;;;;;;;11.58;48.16;94170.72;5051895;28;20446;-62
2022/04/10 07:57:04;;;;;;;5.43;4.10;;;;;;;12.60;46.34;94155.28;5050979;28;20534;-61
2022/04/10 07:59:33;;;;;;;3.70;3.20;;;;;;;12.61;45.89;94162.88;5050704;28;20489;-62
2022/04/10 08:02:02;;;;;;;5.00;3.50;;;;;;;12.47;45.80;94148.09;5051185;28;20475;-60
2022/04/10 08:04:33;;;;;;;6.17;4.43;;;;;;;13.19;44.61;94158.06;5050696;28;20451;-61
2022/04/10 08:07:27;;;;;;;4.60;2.90;;;;;;;13.59;43.69;94167.09;5050803;28;20457;-60
2022/04/10 08:09:54;;;;;;;3.20;2.50;;;;;;;12.44;45.44;94188.88;5052052;28;20439;-61
2022/04/10 08:12:21;;;;;;;2.90;2.10;;;;;;;11.85;46.42;94180.66;5052002;28;20446;-61
2022/04/10 08:14:49;;;;;;;2.87;2.57;;;;;;;11.57;47.81;94186.75;5051506;28;20467;-63
2022/04/10 08:17:16;;;;;;;3.03;2.13;;;;;;;11.88;46.75;94185.34;5051733;28;20488;-61
2022/04/10 08:19:43;;;;;;;2.90;2.37;;;;;;;12.13;46.23;94177.19;5051711;28;20467;-62
2022/04/10 08:22:28;;;;;;;3.47;2.20;;;;;;;12.51;45.31;94173.53;5051908;28;20423;-60
2022/04/10 08:24:55;;;;;;;3.67;1.90;;;;;;;11.70;46.09;94183.47;5051505;28;20484;-60
2022/04/10 08:27:22;;;;;;;2.20;1.70;;;;;;;11.85;46.28;94170.97;5051902;28;20443;-60
2022/04/10 08:29:53;;;;;;;2.30;1.60;;;;;;;11.96;45.25;94179.50;5051421;28;20467;-61
2022/04/10 08:32:20;;;;;;;4.93;1.60;;;;;;;11.94;45.13;94179.00;5051650;28;20439;-61
2022/04/10 08:34:47;;;;;;;3.00;1.50;;;;;;;11.52;45.80;94186.75;5051035;28;20439;-61
2022/04/10 08:37:14;;;;;;;3.43;1.27;;;;;;;11.24;46.50;94199.63;5051430;28;20442;-61
2022/04/10 08:39:41;;;;;;;1.90;1.60;;;;;;;11.46;46.04;94204.41;5050226;28;20853;-64
2022/04/10 08:42:08;;;;;;;2.47;1.40;;;;;;;11.71;45.27;94216.53;5051616;28;20978;-61
2022/04/10 08:44:36;;;;;;;4.60;1.20;;;;;;;11.18;45.95;94224.31;5050809;28;20461;-60
2022/04/10 08:47:03;;;;;;;1.40;1.20;;;;;;;11.48;45.71;94223.28;5051739;28;20446;-61
2022/04/10 08:49:31;;;;;;;2.83;1.30;;;;;;;10.66;47.24;94232.03;5066913;28;20455;-61
2022/04/10 08:51:59;;;;;;;1.60;1.10;;;;;;;10.79;46.93;94247.16;5051269;28;21223;-63
2022/04/10 08:54:27;;;;;;;3.13;1.40;;;;;;;10.67;47.38;94238.84;5050981;28;20435;-61
2022/04/10 08:56:57;;;;;;;3.10;1.30;;;;;;;10.90;46.60;94230.31;5051052;28;20446;-61
2022/04/10 08:59:24;;;;;;;1.90;1.53;;;;;;;10.81;47.08;94260.75;5050628;28;20439;-60
2022/04/10 09:01:56;;;;;;;5.23;1.40;;;;;;;11.15;47.00;94256.34;5051670;28;20479;-60
2022/04/10 09:04:23;;;;;;;2.53;1.30;;;;;;;11.18;47.28;94250.53;5051019;28;20447;-61
2022/04/10 09:07:03;;;;;;;2.20;1.53;;;;;;;10.83;48.23;94263.13;5050972;28;20486;-62
2022/04/10 09:09:31;;;;;;;1.63;1.10;;;;;;;10.47;48.67;94264.38;5050550;28;20526;-59
2022/04/10 09:11:59;;;;;;;1.33;1.10;;;;;;;9.89;49.83;94278.94;5051046;28;20462;-61
2022/04/10 09:14:28;;;;;;;3.27;1.10;;;;;;;9.67;51.02;94265.38;5050404;28;20447;-60
2022/04/10 09:17:16;;;;;;;1.60;1.27;;;;;;;9.98;50.11;94270.25;5050647;28;20482;-61
2022/04/10 09:19:51;;;;;;;1.90;1.00;;;;;;;9.87;49.44;94283.66;5050301;28;20203;-62
2022/04/10 09:22:26;;;;;;;1.30;1.20;;;;;;;9.90;49.84;94275.28;5050598;28;20806;-62
2022/04/10 09:25:14;;;;;;;1.33;1.15;;;;;;;10.00;49.05;94280.47;5050757;28;20685;-63
2022/04/10 09:27:43;;;;;;;2.63;0.98;;;;;;;9.45;50.45;94285.81;5050874;28;20200;-61
2022/04/10 09:30:14;;;;;;;1.92;1.40;;;;;;;9.90;49.83;94280.50;5050481;28;20258;-63
2022/04/10 09:32:45;;;;;;;1.50;1.40;;;;;;;9.94;49.86;94281.56;5050955;28;20603;-62
2022/04/10 09:35:14;;;;;;;1.85;1.60;;;;;;;9.87;49.70;94273.97;5050688;28;20195;-59
2022/04/10 09:37:48;;;;;;;1.65;1.30;;;;;;;9.86;49.82;94289.94;5050347;28;20287;-62
2022/04/10 09:40:28;;;;;;;1.70;1.25;;;;;;;9.84;50.21;94286.78;5049969;28;20223;-59
2022/04/10 09:43:06;;;;;;;1.40;1.20;;;;;;;8.94;52.31;94283.16;5050688;28;20185;-59
2022/04/10 09:45:34;;;;;;;1.98;1.38;;;;;;;9.16;51.79;94285.53;5049939;28;20200;-61
2022/04/10 09:48:19;;;;;;;1.75;1.48;;;;;;;9.61;50.41;94272.47;5050145;28;20698;-61
2022/04/10 09:51:09;;;;;;;2.00;1.50;;;;;;;8.98;53.33;94294.66;5048823;28;20227;-62
2022/04/10 09:53:37;;;;;;;1.83;1.60;;;;;;;8.96;53.04;94291.53;5050485;28;20205;-61
2022/04/10 09:56:10;;;;;;;1.80;1.35;;;;;;;8.84;52.85;94287.59;5049656;28;20316;-61
2022/04/10 09:58:39;;;;;;;2.53;1.60;;;;;;;9.51;51.44;94297.81;5050377;28;20644;-62
2022/04/10 10:01:11;;;;;;;2.00;1.45;;;;;;;9.43;52.05;94298.34;5049130;28;20213;-61
2022/04/10 10:03:38;;;;;;;1.60;1.50;;;;;;;10.26;50.48;94294.28;5050138;28;20192;-59
2022/04/10 10:06:07;;;;;;;1.77;1.52;;;;;;;9.87;51.18;94297.50;5049306;28;20207;-62
2022/04/10 10:08:34;;;;;;;2.13;1.02;;;;;;;9.17;51.97;94298.38;5050438;28;20222;-60
2022/04/10 10:11:03;;;;;;;1.90;1.40;;;;;;;9.80;51.86;94288.34;5049388;28;20552;-60
2022/04/10 10:13:31;;;;;;;4.13;3.25;;;;;;;9.44;51.50;94287.63;5050020;28;20212;-60
2022/04/10 10:15:58;;;;;;;3.28;2.63;;;;;;;9.81;51.55;94276.88;5049190;28;20628;-61
2022/04/10 10:18:25;;;;;;;6.15;3.25;;;;;;;9.34;51.96;94292.09;5049951;28;20196;-62
2022/04/10 10:20:52;;;;;;;0.70;0.60;;;;;;;9.31;52.83;94297.81;5048957;28;20215;-60
2022/04/10 10:23:22;;;;;;;1.10;0.73;;;;;;;9.39;52.48;94281.63;5050173;28;20208;-61
2022/04/10 10:26:14;;;;;;;1.20;1.00;;;;;;;9.75;51.63;94280.53;5049081;28;20676;-61
2022/04/10 10:28:46;;;;;;;1.77;1.10;;;;;;;9.62;52.21;94284.47;5049796;28;20200;-64
2022/04/10 10:31:41;;;;;;;1.92;1.10;;;;;;;9.42;52.70;94278.47;5049029;28;20569;-62
2022/04/10 10:34:09;;;;;;;1.38;1.00;;;;;;;9.76;52.00;94271.66;5049400;28;20192;-62
2022/04/10 10:36:36;;;;;;;1.30;1.10;;;;;;;10.05;51.46;94275.25;5049418;28;20674;-62
2022/04/10 10:39:05;;;;;;;1.48;1.33;;;;;;;10.26;50.66;94268.09;5049865;28;20197;-61
2022/04/10 10:41:36;;;;;;;4.13;1.60;;;;;;;10.01;51.24;94253.25;5048852;28;20239;-62
2022/04/10 10:44:25;;;;;;;2.72;1.60;;;;;;;10.04;51.40;94276.28;5049580;28;20207;-61
2022/04/10 10:46:57;;;;;;;4.82;1.95;;;;;;;9.64;51.54;94258.84;5045692;28;20197;-63
2022/04/10 10:49:27;;;;;;;3.15;1.83;;;;;;;9.69;51.37;94252.84;5048829;28;20623;-64
2022/04/10 10:52:10;;;;;;;2.80;1.63;;;;;;;9.72;52.48;94257.53;5049519;28;20239;-62
2022/04/10 10:54:50;;;;;;;3.53;1.92;;;;;;;9.77;51.69;94249.66;5049186;28;20190;-63
2022/04/10 10:57:23;;;;;;;5.72;2.60;;;;;;;9.17;52.54;94253.94;5049520;28;20200;-62
2022/04/10 10:59:52;;;;;;;5.88;2.20;;;;;;;9.68;51.95;94246.03;5049140;28;20207;-61
2022/04/10 11:02:20;;;;;;;1.73;1.48;;;;;;;9.01;52.97;94247.09;5048594;28;20228;-62
2022/04/10 11:05:28;;;;;;;2.80;1.60;;;;;;;9.31;52.12;94256.00;5048848;28;20204;-62
2022/04/10 11:07:57;;;;;;;1.83;1.30;;;;;;;9.10;52.69;94253.38;5048940;28;20208;-63
2022/04/10 11:10:28;;;;;;;2.90;1.70;;;;;;;9.28;52.35;94248.69;5049117;28;20210;-63
2022/04/10 11:13:08;;;;;;;3.03;1.80;;;;;;;9.21;52.66;94251.56;5049234;28;20208;-62
2022/04/10 11:15:52;;;;;;;5.00;1.70;;;;;;;9.54;52.34;94239.78;5048286;28;20203;-61
2022/04/10 11:18:23;;;;;;;4.38;2.97;;;;;;;9.69;52.42;94242.38;5048847;28;20669;-63
2022/04/10 11:20:58;;;;;;;2.45;2.03;;;;;;;9.05;53.13;94242.16;5048645;28;20620;-62
2022/04/10 11:23:30;;;;;;;8.30;3.65;;;;;;;9.67;52.11;94244.47;5049389;28;20228;-61
2022/04/10 11:26:06;;;;;;;4.07;2.53;;;;;;;9.47;51.84;94249.72;5048772;28;20283;-62
2022/04/10 11:28:55;;;;;;;5.97;2.10;;;;;;;8.90;52.42;94250.78;5049001;28;20172;-62
2022/04/10 11:31:40;;;;;;;4.40;2.33;;;;;;;9.45;51.99;94254.44;5048527;28;20246;-63
2022/04/10 11:34:25;;;;;;;4.38;2.35;;;;;;;9.55;51.89;94249.19;5048573;28;20578;-62
2022/04/10 11:36:54;;;;;;;13.13;3.60;;;;;;;9.51;51.53;94261.19;5048720;28;20280;-60
2022/04/10 11:39:23;;;;;;;5.28;3.00;;;;;;;9.59;52.75;94252.84;5048388;28;20223;-61
2022/04/10 11:41:52;;;;;;;5.75;3.33;;;;;;;9.10;53.10;94255.22;5048665;28;20236;-61
2022/04/10 11:44:19;;;;;;;14.77;5.43;;;;;;;9.50;52.10;94244.75;5048424;28;20270;-61